Time;durP1;ratioP1;P1;durP2;ratioP2;P2;SDS_P1;SDS_P2;PMS_P1;PMS_P2;Temp;Humidity;BMP_temperature;BMP_pressure;BME280_temperature;BME280_humidity;BME280_pressure;Samples;Min_cycle;Max_cycle;Signal;HPM_P1;HPM_P2
2022/12/16 00:00:23;;;;;;;;;;;;;;;18.30;61.44;97265.63;2073398;28;20526;-70
2022/12/16 00:01:25;;;;;;;;;;;;;;;18.30;61.61;97265.63;2075317;28;19928;-69
2022/12/16 00:02:28;;;;;;;;;;;;;;;18.29;61.60;97258.66;2074383;28;20697;-71
2022/12/16 00:03:28;;;;;;;;;;;;;;;18.29;61.62;97253.28;2079714;28;19928;-71
2022/12/16 00:04:30;;;;;;;;;;;;;;;18.30;61.27;97265.63;2077928;28;19984;-70
2022/12/16 00:05:30;;;;;;;;;;;;;;;18.29;61.38;97261.31;2070710;28;19925;-70
2022/12/16 00:06:33;;;;;;;;;;;;;;;18.28;61.53;97263.19;2077813;28;20542;-72
2022/12/16 00:07:34;;;;;;;;;;;;;;;18.26;61.48;97253.75;2075938;28;19929;-71
2022/12/16 00:08:37;;;;;;;;;;;;;;;18.26;61.39;97254.56;2075422;28;19920;-70
2022/12/16 00:09:38;;;;;;;;;;;;;;;18.26;61.52;97254.56;2075083;28;19925;-70
2022/12/16 00:10:52;;;;;;;;;;;;;;;18.27;61.60;97255.38;2075739;28;20010;-70
2022/12/16 00:11:54;;;;;;;;;;;;;;;18.25;61.48;97260.19;2075009;28;19928;-71
2022/12/16 00:12:54;;;;;;;;;;;;;;;18.25;61.60;97252.13;2068771;28;20010;-71
2022/12/16 00:13:56;;;;;;;;;;;;;;;18.21;61.65;97250.94;2073228;28;20166;-71
2022/12/16 00:14:56;;;;;;;;;;;;;;;18.21;61.57;97250.94;2073581;28;19932;-70
2022/12/16 00:15:58;;;;;;;;;;;;;;;18.21;61.52;97246.38;2077024;28;20439;-70
2022/12/16 00:16:59;;;;;;;;;;;;;;;18.22;61.48;97244.50;2074706;28;19948;-71
2022/12/16 00:18:02;;;;;;;;;;;;;;;18.21;61.39;97246.38;2073063;28;19920;-71
2022/12/16 00:19:02;;;;;;;;;;;;;;;18.19;61.55;97245.00;2073001;28;19969;-70
2022/12/16 00:20:04;;;;;;;;;;;;;;;18.19;61.64;97242.31;2075448;28;19978;-70
2022/12/16 00:21:05;;;;;;;;;;;;;;;18.18;61.73;97243.38;2071391;28;19932;-71
2022/12/16 00:22:07;;;;;;;;;;;;;;;18.18;61.69;97248.75;2079248;28;19967;-71
2022/12/16 00:23:07;;;;;;;;;;;;;;;18.17;61.65;97237.19;2077401;28;19925;-70
2022/12/16 00:24:09;;;;;;;;;;;;;;;18.17;61.61;97245.25;2076800;28;19927;-71
2022/12/16 00:25:09;;;;;;;;;;;;;;;18.17;61.73;97247.13;2078942;28;19925;-71
2022/12/16 00:26:11;;;;;;;;;;;;;;;18.18;61.51;97246.88;2074798;28;20344;-72
2022/12/16 00:27:12;;;;;;;;;;;;;;;18.16;61.66;97248.16;2075269;28;20807;-71
2022/12/16 00:28:14;;;;;;;;;;;;;;;18.17;61.44;97249.78;2071001;28;19931;-71
2022/12/16 00:29:15;;;;;;;;;;;;;;;18.16;61.47;97245.47;2074443;28;19982;-71
2022/12/16 00:30:17;;;;;;;;;;;;;;;18.16;61.65;97256.19;2071353;28;19982;-71
2022/12/16 00:31:17;;;;;;;;;;;;;;;18.14;61.70;97255.63;2075882;28;19925;-72
2022/12/16 00:32:19;;;;;;;;;;;;;;;18.14;61.55;97250.28;2075099;28;20427;-70
2022/12/16 00:33:21;;;;;;;;;;;;;;;18.13;61.44;97248.63;2077845;28;19955;-72
2022/12/16 00:34:23;;;;;;;;;;;;;;;18.12;61.74;97252.38;2073664;28;19925;-71
2022/12/16 00:35:23;;;;;;;;;;;;;;;18.14;61.51;97258.31;2074868;28;19929;-71
2022/12/16 00:36:25;;;;;;;;;;;;;;;18.10;61.59;97252.56;2075743;28;19928;-70
2022/12/16 00:37:27;;;;;;;;;;;;;;;18.09;61.86;97253.66;2071176;28;19971;-70
2022/12/16 00:38:28;;;;;;;;;;;;;;;18.09;61.73;97257.13;2074491;28;20484;-72
2022/12/16 00:39:29;;;;;;;;;;;;;;;18.08;61.79;97252.84;2077273;28;19929;-71
2022/12/16 00:40:30;;;;;;;;;;;;;;;18.07;61.81;97251.19;2072381;28;23351;-71
2022/12/16 00:41:31;;;;;;;;;;;;;;;18.08;61.75;97247.47;2075285;28;19925;-70
2022/12/16 00:42:33;;;;;;;;;;;;;;;18.07;61.48;97250.38;2076966;28;19924;-70
2022/12/16 00:43:33;;;;;;;;;;;;;;;18.07;61.58;97245.00;2068796;28;20397;-72
2022/12/16 00:44:35;;;;;;;;;;;;;;;18.04;61.66;97240.91;2070977;28;19948;-70
2022/12/16 00:45:35;;;;;;;;;;;;;;;18.02;61.66;97237.63;2067091;28;20384;-70
2022/12/16 00:46:37;;;;;;;;;;;;;;;18.02;61.78;97242.19;2072256;28;19935;-71
2022/12/16 00:47:37;;;;;;;;;;;;;;;18.01;61.83;97251.31;2070455;28;19931;-70
2022/12/16 00:48:40;;;;;;;;;;;;;;;17.99;61.88;97248.03;2074177;28;20430;-70
2022/12/16 00:49:41;;;;;;;;;;;;;;;18.01;61.88;97245.94;2074109;28;19929;-70
2022/12/16 00:50:46;;;;;;;;;;;;;;;17.98;61.72;97246.41;2067824;28;19931;-71
2022/12/16 00:51:48;;;;;;;;;;;;;;;17.97;61.79;97252.81;2073619;28;19921;-71
2022/12/16 00:52:48;;;;;;;;;;;;;;;17.96;61.82;97267.28;2071161;28;19925;-71
2022/12/16 00:53:50;;;;;;;;;;;;;;;17.96;61.78;97268.09;2074503;28;19924;-72
2022/12/16 00:54:51;;;;;;;;;;;;;;;17.97;61.60;97272.44;2075114;28;19964;-70
2022/12/16 00:55:52;;;;;;;;;;;;;;;17.96;61.76;97270.78;2073251;28;22047;-72
2022/12/16 00:56:53;;;;;;;;;;;;;;;17.95;61.67;97279.06;2075857;28;20266;-72
2022/12/16 00:57:55;;;;;;;;;;;;;;;17.92;61.82;97280.34;2076002;28;19924;-71
2022/12/16 00:58:55;;;;;;;;;;;;;;;17.93;61.70;97281.97;2072535;28;19932;-72
2022/12/16 00:59:57;;;;;;;;;;;;;;;17.93;62.09;97281.97;2067909;28;19946;-72
2022/12/16 01:00:57;;;;;;;;;;;;;;;17.90;61.91;97289.69;2066888;28;19925;-72
2022/12/16 01:01:59;;;;;;;;;;;;;;;17.89;61.94;97291.53;2077384;28;20768;-71
2022/12/16 01:03:00;;;;;;;;;;;;;;;17.88;62.07;97297.13;2072193;28;19940;-68
2022/12/16 01:04:03;;;;;;;;;;;;;;;17.89;61.91;97296.91;2066836;28;19929;-71
2022/12/16 01:05:04;;;;;;;;;;;;;;;17.87;61.94;97293.63;2074694;28;19925;-71
2022/12/16 01:06:07;;;;;;;;;;;;;;;17.87;62.11;97299.00;2067297;28;19935;-70
2022/12/16 01:07:08;;;;;;;;;;;;;;;17.84;61.97;97294.09;2074522;28;19929;-71
2022/12/16 01:08:10;;;;;;;;;;;;;;;17.86;61.96;97297.38;2078357;28;20377;-71
2022/12/16 01:09:11;;;;;;;;;;;;;;;17.85;62.04;97303.75;2074829;28;20456;-72
2022/12/16 01:10:12;;;;;;;;;;;;;;;17.83;62.05;97303.19;2071764;28;19928;-71
2022/12/16 01:11:14;;;;;;;;;;;;;;;17.82;62.22;97298.88;2072142;28;19925;-71
2022/12/16 01:12:16;;;;;;;;;;;;;;;17.85;62.05;97295.72;2073187;28;19928;-71
2022/12/16 01:13:16;;;;;;;;;;;;;;;17.82;62.07;97296.19;2072078;28;19967;-71
2022/12/16 01:14:18;;;;;;;;;;;;;;;17.81;62.19;97298.06;2080927;28;20587;-73
2022/12/16 01:15:19;;;;;;;;;;;;;;;17.78;62.21;97292.31;2075586;28;20024;-72
2022/12/16 01:16:20;;;;;;;;;;;;;;;17.79;62.31;97291.28;2074284;28;20088;-72
2022/12/16 01:17:21;;;;;;;;;;;;;;;17.77;62.18;97296.03;2074981;28;20782;-72
2022/12/16 01:18:22;;;;;;;;;;;;;;;17.77;62.06;97296.03;2071798;28;19932;-71
2022/12/16 01:19:24;;;;;;;;;;;;;;;17.76;62.21;97299.75;2069941;28;20012;-70
2022/12/16 01:20:26;;;;;;;;;;;;;;;17.76;62.11;97291.72;2077769;28;20004;-72
2022/12/16 01:21:26;;;;;;;;;;;;;;;17.72;62.18;97283.31;2074186;28;19950;-72
2022/12/16 01:22:30;;;;;;;;;;;;;;;17.74;62.01;97277.72;2077726;28;19976;-72
2022/12/16 01:23:30;;;;;;;;;;;;;;;17.74;62.04;97272.34;2075064;28;19921;-70
2022/12/16 01:24:32;;;;;;;;;;;;;;;17.71;62.29;97283.53;2074956;28;21226;-72
2022/12/16 01:25:32;;;;;;;;;;;;;;;17.73;62.11;97282.28;2073693;28;19936;-72
2022/12/16 01:26:34;;;;;;;;;;;;;;;17.70;62.13;97282.72;2081999;28;19924;-72
2022/12/16 01:27:34;;;;;;;;;;;;;;;17.70;62.12;97276.56;2078515;28;19968;-69
2022/12/16 01:28:36;;;;;;;;;;;;;;;17.73;62.27;97281.47;2076029;28;19921;-72
2022/12/16 01:29:37;;;;;;;;;;;;;;;17.71;62.23;97281.66;2072766;28;19929;-69
2022/12/16 01:30:38;;;;;;;;;;;;;;;17.70;62.17;97293.47;2073436;28;20019;-71
2022/12/16 01:31:39;;;;;;;;;;;;;;;17.71;62.00;97289.72;2074865;28;19924;-71
2022/12/16 01:32:40;;;;;;;;;;;;;;;17.70;62.13;97298.00;2071789;28;19925;-70
2022/12/16 01:33:41;;;;;;;;;;;;;;;17.69;62.06;97297.19;2073224;28;19933;-71
2022/12/16 01:34:44;;;;;;;;;;;;;;;17.68;62.19;97287.50;2070086;28;19924;-70
2022/12/16 01:35:44;;;;;;;;;;;;;;;17.69;62.10;97288.31;2068967;28;19932;-70
2022/12/16 01:36:46;;;;;;;;;;;;;;;17.69;62.15;97291.00;2071425;28;19956;-71
2022/12/16 01:37:46;;;;;;;;;;;;;;;17.65;62.25;97286.09;2067045;28;20014;-71
2022/12/16 01:38:48;;;;;;;;;;;;;;;17.67;62.09;97285.06;2079581;28;19925;-71
2022/12/16 01:39:49;;;;;;;;;;;;;;;17.64;62.27;97284.47;2065957;28;20197;-71
2022/12/16 01:40:51;;;;;;;;;;;;;;;17.65;62.19;97279.91;2072871;28;19924;-71
2022/12/16 01:41:52;;;;;;;;;;;;;;;17.64;62.18;97278.28;2074400;28;19936;-72
2022/12/16 01:42:54;;;;;;;;;;;;;;;17.63;62.42;97274.81;2070499;28;19925;-71
2022/12/16 01:44:09;;;;;;;;;;;;;;;17.62;62.31;97267.78;2076681;28;20351;-72
2022/12/16 01:45:28;;;;;;;;;;;;;;;17.62;62.35;97275.81;2074146;28;19920;-71
2022/12/16 01:46:30;;;;;;;;;;;;;;;17.60;62.38;97275.22;2070442;28;20401;-72
2022/12/16 01:47:31;;;;;;;;;;;;;;;17.60;62.35;97271.75;2069421;28;19944;-71
2022/12/16 01:48:36;;;;;;;;;;;;;;;17.60;62.29;97274.41;2069551;28;19930;-72
2022/12/16 01:49:40;;;;;;;;;;;;;;;17.58;62.51;97273.84;2072774;28;19920;-72
2022/12/16 01:50:43;;;;;;;;;;;;;;;17.58;62.40;97281.91;2069848;28;20015;-71
2022/12/16 01:51:44;;;;;;;;;;;;;;;17.55;62.30;97272.44;2075716;28;19940;-72
2022/12/16 01:52:48;;;;;;;;;;;;;;;17.55;62.31;97277.81;2075660;28;19978;-72
2022/12/16 01:53:50;;;;;;;;;;;;;;;17.55;62.45;97271.59;2071418;28;19959;-70
2022/12/16 01:54:55;;;;;;;;;;;;;;;17.56;62.32;97265.22;2070249;28;19936;-71
2022/12/16 01:55:56;;;;;;;;;;;;;;;17.53;62.29;97263.81;2073657;28;19925;-72
2022/12/16 01:57:00;;;;;;;;;;;;;;;17.55;62.25;97269.78;2073752;28;19935;-71
2022/12/16 01:58:03;;;;;;;;;;;;;;;17.55;62.24;97267.09;2072367;28;19925;-71
2022/12/16 01:59:05;;;;;;;;;;;;;;;17.54;62.44;97262.75;2070370;28;19956;-73
2022/12/16 02:00:06;;;;;;;;;;;;;;;17.52;62.17;97267.53;2075587;28;20627;-71
2022/12/16 02:01:08;;;;;;;;;;;;;;;17.52;62.35;97264.03;2071653;28;19928;-72
2022/12/16 02:02:09;;;;;;;;;;;;;;;17.51;62.32;97265.91;2078022;28;19979;-71
2022/12/16 02:03:10;;;;;;;;;;;;;;;17.51;62.32;97263.22;2077355;28;19947;-72
2022/12/16 02:04:12;;;;;;;;;;;;;;;17.50;62.54;97272.31;2076064;28;19921;-72
2022/12/16 02:05:19;;;;;;;;;;;;;;;17.50;62.60;97277.69;2075919;28;19929;-71
2022/12/16 02:06:22;;;;;;;;;;;;;;;17.49;62.30;97272.53;2074239;28;20292;-72
2022/12/16 02:07:23;;;;;;;;;;;;;;;17.49;62.53;97270.66;2073141;28;19951;-71
2022/12/16 02:08:25;;;;;;;;;;;;;;;17.48;62.38;97263.69;2073754;28;19982;-72
2022/12/16 02:09:25;;;;;;;;;;;;;;;17.49;62.41;97264.50;2077482;28;19928;-72
2022/12/16 02:10:31;;;;;;;;;;;;;;;17.47;62.42;97259.38;2071487;28;19929;-71
2022/12/16 02:11:46;;;;;;;;;;;;;;;17.47;62.56;97263.91;2073820;28;20437;-72
2022/12/16 02:12:51;;;;;;;;;;;;;;;17.47;62.28;97264.75;2076168;28;19924;-71
2022/12/16 02:14:03;;;;;;;;;;;;;;;17.46;62.39;97260.41;2076550;28;20385;-71
2022/12/16 02:15:12;;;;;;;;;;;;;;;17.45;62.43;97264.13;2079786;28;19982;-71
2022/12/16 02:16:16;;;;;;;;;;;;;;;17.48;62.39;97263.69;2074448;28;20448;-71
2022/12/16 02:17:20;;;;;;;;;;;;;;;17.45;62.32;97261.47;2073784;28;20398;-71
2022/12/16 02:18:29;;;;;;;;;;;;;;;17.46;62.39;97265.75;2071767;28;19926;-72
2022/12/16 02:19:50;;;;;;;;;;;;;;;17.44;62.24;97265.19;2078594;28;19927;-71
2022/12/16 02:21:06;;;;;;;;;;;;;;;17.43;62.49;97269.72;2075735;28;19952;-71
2022/12/16 02:22:17;;;;;;;;;;;;;;;17.44;62.45;97267.88;2077035;28;20329;-71
2022/12/16 02:23:30;;;;;;;;;;;;;;;17.41;62.56;97262.94;2082306;28;20472;-71
2022/12/16 02:24:42;;;;;;;;;;;;;;;17.41;62.45;97262.94;2074677;28;19939;-71
2022/12/16 02:25:54;;;;;;;;;;;;;;;17.40;62.65;97267.50;2078441;28;19921;-71
2022/12/16 02:27:10;;;;;;;;;;;;;;;17.39;62.48;97275.78;2067126;28;19925;-70
2022/12/16 02:28:13;;;;;;;;;;;;;;;17.38;62.43;97279.50;2070471;28;19925;-71
2022/12/16 02:29:28;;;;;;;;;;;;;;;17.37;62.56;97284.03;2076041;28;20412;-70
2022/12/16 02:30:39;;;;;;;;;;;;;;;17.39;62.48;97289.19;2076076;28;20265;-71
2022/12/16 02:31:43;;;;;;;;;;;;;;;17.40;62.45;97285.44;2070942;28;19924;-71
2022/12/16 02:32:52;;;;;;;;;;;;;;;17.39;62.53;97286.50;2067333;28;20661;-71
2022/12/16 02:34:02;;;;;;;;;;;;;;;17.38;62.65;97295.56;2075627;28;19929;-71
2022/12/16 02:35:08;;;;;;;;;;;;;;;17.36;62.44;97286.97;2069770;28;20325;-71
2022/12/16 02:36:12;;;;;;;;;;;;;;;17.39;62.47;97294.53;2070268;28;19935;-72
2022/12/16 02:37:17;;;;;;;;;;;;;;;17.36;62.37;97284.28;2067014;28;21061;-71
2022/12/16 02:38:24;;;;;;;;;;;;;;;17.35;62.46;97286.13;2074112;28;19925;-70
2022/12/16 02:39:30;;;;;;;;;;;;;;;17.37;62.38;97293.94;2069111;28;19924;-71
2022/12/16 02:40:36;;;;;;;;;;;;;;;17.37;62.66;97296.63;2070349;28;20016;-72
2022/12/16 02:41:41;;;;;;;;;;;;;;;17.35;62.43;97291.47;2073660;28;19931;-72
2022/12/16 02:42:47;;;;;;;;;;;;;;;17.36;62.55;97286.97;2074038;28;20357;-72
2022/12/16 02:43:50;;;;;;;;;;;;;;;17.35;62.45;97285.31;2070122;28;19974;-72
2022/12/16 02:44:55;;;;;;;;;;;;;;;17.33;62.53;97288.22;2073719;28;20481;-70
2022/12/16 02:45:57;;;;;;;;;;;;;;;17.34;62.51;97294.41;2079178;28;19924;-71
2022/12/16 02:46:59;;;;;;;;;;;;;;;17.33;62.53;97298.16;2077788;28;19967;-71
2022/12/16 02:48:00;;;;;;;;;;;;;;;17.32;62.67;97294.63;2074890;28;19929;-71
2022/12/16 02:49:05;;;;;;;;;;;;;;;17.32;62.43;97296.50;2073477;28;19974;-71
2022/12/16 02:50:14;;;;;;;;;;;;;;;17.32;62.57;97283.09;2074987;28;20774;-72
2022/12/16 02:51:15;;;;;;;;;;;;;;;17.30;62.46;97293.22;2074594;28;20063;-71
2022/12/16 02:52:19;;;;;;;;;;;;;;;17.28;62.69;97285.41;2073698;28;20306;-72
2022/12/16 02:53:21;;;;;;;;;;;;;;;17.30;62.52;97286.00;2071813;28;20429;-71
2022/12/16 02:54:22;;;;;;;;;;;;;;;17.30;62.68;97282.50;2074358;28;19978;-72
2022/12/16 02:55:27;;;;;;;;;;;;;;;17.29;62.63;97278.19;2066051;28;19936;-71
2022/12/16 02:56:35;;;;;;;;;;;;;;;17.27;62.58;97277.59;2068063;28;19931;-71
2022/12/16 02:57:45;;;;;;;;;;;;;;;17.27;62.83;97277.59;2073662;28;20478;-72
2022/12/16 02:58:49;;;;;;;;;;;;;;;17.27;62.78;97269.56;2075854;28;19928;-73
2022/12/16 02:59:56;;;;;;;;;;;;;;;17.26;62.73;97271.41;2069349;28;20636;-71
2022/12/16 03:01:03;;;;;;;;;;;;;;;17.24;62.75;97276.19;2070326;28;20578;-72
2022/12/16 03:02:11;;;;;;;;;;;;;;;17.24;62.67;97273.50;2070946;28;19921;-71
2022/12/16 03:03:17;;;;;;;;;;;;;;;17.25;62.64;97274.34;2077924;28;19931;-72
2022/12/16 03:04:20;;;;;;;;;;;;;;;17.24;62.77;97278.03;2068130;28;19931;-71
2022/12/16 03:05:23;;;;;;;;;;;;;;;17.24;62.74;97273.50;2071620;28;20496;-70
2022/12/16 03:06:26;;;;;;;;;;;;;;;17.25;62.38;97268.97;2065657;28;19928;-72
2022/12/16 03:07:30;;;;;;;;;;;;;;;17.23;62.74;97271.88;2063121;28;19986;-70
2022/12/16 03:08:34;;;;;;;;;;;;;;;17.24;62.83;97267.34;2066861;28;19924;-72
2022/12/16 03:09:35;;;;;;;;;;;;;;;17.23;62.55;97271.88;2070054;28;19924;-71
2022/12/16 03:10:42;;;;;;;;;;;;;;;17.23;62.65;97276.44;2075233;28;19974;-71
2022/12/16 03:11:43;;;;;;;;;;;;;;;17.20;62.83;97273.16;2067192;28;20750;-71
2022/12/16 03:12:45;;;;;;;;;;;;;;;17.20;62.62;97273.16;2063450;28;19931;-72
2022/12/16 03:13:50;;;;;;;;;;;;;;;17.19;62.51;97268.84;2073224;28;20034;-72
2022/12/16 03:14:52;;;;;;;;;;;;;;;17.18;62.84;97274.41;2064696;28;19935;-72
2022/12/16 03:15:56;;;;;;;;;;;;;;;17.16;62.88;97265.78;2070908;28;19929;-71
2022/12/16 03:16:58;;;;;;;;;;;;;;;17.16;62.77;97263.94;2073697;28;19921;-72
2022/12/16 03:18:00;;;;;;;;;;;;;;;17.15;62.68;97264.97;2070905;28;20286;-71
2022/12/16 03:19:03;;;;;;;;;;;;;;;17.17;62.72;97262.06;2066549;28;21429;-71
2022/12/16 03:20:09;;;;;;;;;;;;;;;17.17;62.78;97262.88;2079552;28;19927;-71
2022/12/16 03:21:12;;;;;;;;;;;;;;;17.16;62.73;97261.25;2076746;28;19924;-72
2022/12/16 03:22:15;;;;;;;;;;;;;;;17.15;62.72;97254.25;2080425;28;19929;-71
2022/12/16 03:23:20;;;;;;;;;;;;;;;17.14;62.88;97257.97;2076227;28;19932;-72
2022/12/16 03:24:21;;;;;;;;;;;;;;;17.13;62.80;97250.16;2071036;28;19935;-72
2022/12/16 03:25:23;;;;;;;;;;;;;;;17.12;62.72;97244.00;2072353;28;19924;-71
2022/12/16 03:26:25;;;;;;;;;;;;;;;17.12;62.72;97244.00;2069051;28;19924;-71
2022/12/16 03:27:32;;;;;;;;;;;;;;;17.13;62.83;97245.66;2070739;28;20011;-71
2022/12/16 03:28:38;;;;;;;;;;;;;;;17.12;62.77;97243.19;2071400;28;20280;-72
2022/12/16 03:29:42;;;;;;;;;;;;;;;17.12;62.61;97241.31;2072256;28;19974;-72
2022/12/16 03:30:44;;;;;;;;;;;;;;;17.12;62.71;97245.88;2067071;28;19931;-71
2022/12/16 03:31:48;;;;;;;;;;;;;;;17.13;62.67;97251.00;2075129;28;19921;-72
2022/12/16 03:32:53;;;;;;;;;;;;;;;17.12;62.81;97252.03;2076978;28;19925;-71
2022/12/16 03:33:58;;;;;;;;;;;;;;;17.11;62.61;97253.09;2062832;28;19928;-71
2022/12/16 03:35:03;;;;;;;;;;;;;;;17.11;62.83;97250.41;2069715;28;20227;-71
2022/12/16 03:36:07;;;;;;;;;;;;;;;17.10;62.90;97251.44;2068133;28;20378;-71
2022/12/16 03:37:08;;;;;;;;;;;;;;;17.10;62.85;97253.31;2066110;28;19921;-71
2022/12/16 03:38:11;;;;;;;;;;;;;;;17.10;62.73;97255.97;2065562;28;19978;-71
2022/12/16 03:39:13;;;;;;;;;;;;;;;17.10;62.76;97258.66;2070736;28;20039;-71
2022/12/16 03:40:15;;;;;;;;;;;;;;;17.09;62.78;97265.06;2072817;28;20002;-71
2022/12/16 03:41:17;;;;;;;;;;;;;;;17.07;62.81;97261.78;2075809;28;19936;-72
2022/12/16 03:42:19;;;;;;;;;;;;;;;17.06;62.78;97257.50;2068545;28;19925;-71
2022/12/16 03:43:20;;;;;;;;;;;;;;;17.07;62.96;97265.28;2067666;28;19936;-72
2022/12/16 03:44:22;;;;;;;;;;;;;;;17.07;62.92;97262.59;2076248;28;19925;-71
2022/12/16 03:45:25;;;;;;;;;;;;;;;17.06;63.02;97271.69;2074085;28;19956;-72
2022/12/16 03:46:26;;;;;;;;;;;;;;;17.05;62.84;97267.41;2072076;28;19928;-71
2022/12/16 03:47:27;;;;;;;;;;;;;;;17.06;62.88;97277.06;2067716;28;19935;-71
2022/12/16 03:48:31;;;;;;;;;;;;;;;17.06;62.75;97274.38;2068767;28;19924;-70
2022/12/16 03:49:31;;;;;;;;;;;;;;;17.07;62.79;97280.53;2067762;28;19931;-71
2022/12/16 03:50:34;;;;;;;;;;;;;;;17.05;62.65;97280.78;2071397;28;19978;-70
2022/12/16 03:51:34;;;;;;;;;;;;;;;17.03;62.69;97282.88;2062386;28;20630;-70
2022/12/16 03:52:36;;;;;;;;;;;;;;;17.06;62.86;97286.97;2066661;28;19932;-71
2022/12/16 03:53:37;;;;;;;;;;;;;;;17.06;62.79;97289.63;2073595;28;19928;-71
2022/12/16 03:54:38;;;;;;;;;;;;;;;17.03;62.97;97292.78;2069756;28;19929;-72
2022/12/16 03:55:39;;;;;;;;;;;;;;;17.02;62.90;97294.63;2070779;28;19931;-70
2022/12/16 03:56:41;;;;;;;;;;;;;;;17.03;62.77;97304.28;2076416;28;19920;-71
2022/12/16 03:57:42;;;;;;;;;;;;;;;17.04;62.61;97305.09;2070799;28;20465;-71
2022/12/16 03:58:45;;;;;;;;;;;;;;;17.01;62.91;97306.38;2064917;28;19960;-70
2022/12/16 03:59:46;;;;;;;;;;;;;;;17.02;62.97;97308.03;2071245;28;19932;-71
2022/12/16 04:00:47;;;;;;;;;;;;;;;17.02;62.87;97308.03;2071022;28;20369;-71
2022/12/16 04:01:49;;;;;;;;;;;;;;;17.02;62.91;97302.66;2074348;28;20390;-71
2022/12/16 04:02:50;;;;;;;;;;;;;;;17.00;62.89;97307.44;2076412;28;20020;-71
2022/12/16 04:03:53;;;;;;;;;;;;;;;16.98;63.01;97304.97;2077693;28;20124;-71
2022/12/16 04:04:53;;;;;;;;;;;;;;;16.97;62.95;97299.84;2072272;28;20604;-70
2022/12/16 04:05:55;;;;;;;;;;;;;;;16.98;62.89;97301.47;2072395;28;19998;-72
2022/12/16 04:08:12;;;;;;;;;;;;;;;17.00;62.85;97304.75;2078900;28;19921;-72
2022/12/16 04:09:12;;;;;;;;;;;;;;;16.99;62.83;97297.75;2075593;28;19994;-72
2022/12/16 04:10:14;;;;;;;;;;;;;;;16.99;62.95;97300.41;2074352;28;19951;-71
2022/12/16 04:24:51;;;;;;;;;;;;;;;16.94;62.93;97305.66;2056064;28;20374;-71
2022/12/16 04:25:52;;;;;;;;;;;;;;;16.93;63.02;97307.50;2076929;28;20390;-71
2022/12/16 04:28:12;;;;;;;;;;;;;;;16.91;63.07;97312.28;2070804;28;19929;-71
2022/12/16 04:29:13;;;;;;;;;;;;;;;16.91;62.92;97308.75;2071841;28;19925;-71
2022/12/16 04:30:20;;;;;;;;;;;;;;;16.91;63.02;97311.44;2073754;28;19932;-71
2022/12/16 04:31:21;;;;;;;;;;;;;;;16.89;63.08;97306.31;2073518;28;20015;-72
2022/12/16 04:32:22;;;;;;;;;;;;;;;16.88;63.19;97306.53;2072583;28;20393;-70
2022/12/16 04:34:43;;;;;;;;;;;;;;;16.88;62.87;97317.25;2070079;28;20346;-71
